sensor_id;sensor_type;location;lat;lon;timestamp;temperature;humidity
10581;DHT22;5338;51.500;6.802;2022-08-18T00:02:06;21.10;99.90
10581;DHT22;5338;51.500;6.802;2022-08-18T00:04:36;20.80;99.90
10581;DHT22;5338;51.500;6.802;2022-08-18T00:07:05;21.10;99.90
10581;DHT22;5338;51.500;6.802;2022-08-18T00:09:33;21.00;99.90
10581;DHT22;5338;51.500;6.802;2022-08-18T00:12:02;20.90;99.90
10581;DHT22;5338;51.500;6.802;2022-08-18T00:14:30;20.70;99.90
10581;DHT22;5338;51.500;6.802;2022-08-18T00:16:57;20.60;99.90
10581;DHT22;5338;51.500;6.802;2022-08-18T00:21:53;20.80;99.90
10581;DHT22;5338;51.500;6.802;2022-08-18T00:24:20;21.00;99.90
10581;DHT22;5338;51.500;6.802;2022-08-18T00:26:47;20.70;99.90
10581;DHT22;5338;51.500;6.802;2022-08-18T00:29:14;21.20;99.90
10581;DHT22;5338;51.500;6.802;2022-08-18T00:31:41;20.90;99.90
10581;DHT22;5338;51.500;6.802;2022-08-18T00:34:07;21.00;99.90
10581;DHT22;5338;51.500;6.802;2022-08-18T00:36:35;20.90;99.90
10581;DHT22;5338;51.500;6.802;2022-08-18T00:39:03;21.10;99.90
10581;DHT22;5338;51.500;6.802;2022-08-18T00:41:30;21.20;99.90
10581;DHT22;5338;51.500;6.802;2022-08-18T00:43:57;21.30;99.90
10581;DHT22;5338;51.500;6.802;2022-08-18T00:46:27;21.40;99.90
10581;DHT22;5338;51.500;6.802;2022-08-18T00:48:54;21.00;99.90
10581;DHT22;5338;51.500;6.802;2022-08-18T00:51:24;21.00;99.90
10581;DHT22;5338;51.500;6.802;2022-08-18T00:53:57;21.00;99.90
10581;DHT22;5338;51.500;6.802;2022-08-18T00:56:29;20.80;99.90
10581;DHT22;5338;51.500;6.802;2022-08-18T00:59:03;20.90;99.90
10581;DHT22;5338;51.500;6.802;2022-08-18T01:01:32;20.70;99.90
10581;DHT22;5338;51.500;6.802;2022-08-18T01:04:04;21.00;99.90
10581;DHT22;5338;51.500;6.802;2022-08-18T01:06:37;20.60;99.90
10581;DHT22;5338;51.500;6.802;2022-08-18T01:09:05;20.70;99.90
10581;DHT22;5338;51.500;6.802;2022-08-18T01:11:34;20.80;99.90
10581;DHT22;5338;51.500;6.802;2022-08-18T01:14:03;21.00;99.90
10581;DHT22;5338;51.500;6.802;2022-08-18T01:16:30;21.20;99.90
10581;DHT22;5338;51.500;6.802;2022-08-18T01:19:16;21.10;99.90
10581;DHT22;5338;51.500;6.802;2022-08-18T01:22:10;20.90;99.90
10581;DHT22;5338;51.500;6.802;2022-08-18T01:24:40;21.10;99.90
10581;DHT22;5338;51.500;6.802;2022-08-18T01:27:25;21.20;99.90
10581;DHT22;5338;51.500;6.802;2022-08-18T01:30:03;20.80;99.90
10581;DHT22;5338;51.500;6.802;2022-08-18T01:32:30;21.00;99.90
10581;DHT22;5338;51.500;6.802;2022-08-18T01:34:58;21.00;99.90
10581;DHT22;5338;51.500;6.802;2022-08-18T01:37:25;20.90;99.90
10581;DHT22;5338;51.500;6.802;2022-08-18T01:39:54;20.80;99.90
10581;DHT22;5338;51.500;6.802;2022-08-18T01:42:21;20.80;99.90
10581;DHT22;5338;51.500;6.802;2022-08-18T01:44:48;20.90;99.90
10581;DHT22;5338;51.500;6.802;2022-08-18T01:47:16;20.70;99.90
10581;DHT22;5338;51.500;6.802;2022-08-18T01:49:45;21.00;99.90
10581;DHT22;5338;51.500;6.802;2022-08-18T01:52:14;21.00;99.90
10581;DHT22;5338;51.500;6.802;2022-08-18T01:54:44;20.60;99.90
10581;DHT22;5338;51.500;6.802;2022-08-18T01:57:13;20.50;99.90
10581;DHT22;5338;51.500;6.802;2022-08-18T01:59:41;20.40;99.90
10581;DHT22;5338;51.500;6.802;2022-08-18T02:02:09;20.70;99.90
10581;DHT22;5338;51.500;6.802;2022-08-18T02:04:39;20.40;99.90
10581;DHT22;5338;51.500;6.802;2022-08-18T02:07:09;20.50;99.90
10581;DHT22;5338;51.500;6.802;2022-08-18T02:09:37;20.30;99.90
10581;DHT22;5338;51.500;6.802;2022-08-18T02:12:05;20.70;99.90
10581;DHT22;5338;51.500;6.802;2022-08-18T02:14:34;20.70;99.90
10581;DHT22;5338;51.500;6.802;2022-08-18T02:17:03;20.40;99.90
10581;DHT22;5338;51.500;6.802;2022-08-18T02:19:32;20.10;99.90
10581;DHT22;5338;51.500;6.802;2022-08-18T02:21:59;20.00;99.90
10581;DHT22;5338;51.500;6.802;2022-08-18T02:24:26;20.60;99.90
10581;DHT22;5338;51.500;6.802;2022-08-18T02:26:53;20.10;99.90
10581;DHT22;5338;51.500;6.802;2022-08-18T02:29:20;20.20;99.90
10581;DHT22;5338;51.500;6.802;2022-08-18T02:31:48;20.40;99.90
10581;DHT22;5338;51.500;6.802;2022-08-18T02:36:43;20.80;99.90
10581;DHT22;5338;51.500;6.802;2022-08-18T02:39:10;20.50;99.90
10581;DHT22;5338;51.500;6.802;2022-08-18T02:41:37;20.70;99.90
10581;DHT22;5338;51.500;6.802;2022-08-18T02:44:06;21.00;99.90
10581;DHT22;5338;51.500;6.802;2022-08-18T02:46:33;21.10;99.90
10581;DHT22;5338;51.500;6.802;2022-08-18T02:49:01;20.70;99.90
10581;DHT22;5338;51.500;6.802;2022-08-18T02:51:29;20.80;99.90
10581;DHT22;5338;51.500;6.802;2022-08-18T02:53:56;21.00;99.90
10581;DHT22;5338;51.500;6.802;2022-08-18T02:56:25;21.00;99.90
10581;DHT22;5338;51.500;6.802;2022-08-18T02:58:55;20.60;99.90
10581;DHT22;5338;51.500;6.802;2022-08-18T03:01:26;20.50;99.90
10581;DHT22;5338;51.500;6.802;2022-08-18T03:03:55;20.60;99.90
10581;DHT22;5338;51.500;6.802;2022-08-18T03:06:24;20.50;99.90
10581;DHT22;5338;51.500;6.802;2022-08-18T03:11:21;20.70;99.90
10581;DHT22;5338;51.500;6.802;2022-08-18T03:13:48;20.90;99.90
10581;DHT22;5338;51.500;6.802;2022-08-18T03:16:16;20.70;99.90
10581;DHT22;5338;51.500;6.802;2022-08-18T03:18:43;20.70;99.90
10581;DHT22;5338;51.500;6.802;2022-08-18T03:21:14;20.80;99.90
10581;DHT22;5338;51.500;6.802;2022-08-18T03:23:43;20.90;99.90
10581;DHT22;5338;51.500;6.802;2022-08-18T03:26:13;21.00;99.90
10581;DHT22;5338;51.500;6.802;2022-08-18T03:28:43;20.90;99.90
10581;DHT22;5338;51.500;6.802;2022-08-18T03:31:12;20.60;99.90
10581;DHT22;5338;51.500;6.802;2022-08-18T03:33:40;21.00;99.90
10581;DHT22;5338;51.500;6.802;2022-08-18T03:36:10;21.10;99.90
10581;DHT22;5338;51.500;6.802;2022-08-18T03:38:37;20.50;99.90
10581;DHT22;5338;51.500;6.802;2022-08-18T03:41:06;20.70;99.90
10581;DHT22;5338;51.500;6.802;2022-08-18T03:43:34;20.70;99.90
10581;DHT22;5338;51.500;6.802;2022-08-18T03:46:02;20.50;99.90
10581;DHT22;5338;51.500;6.802;2022-08-18T03:48:29;19.30;99.90
10581;DHT22;5338;51.500;6.802;2022-08-18T03:51:02;20.40;99.90
10581;DHT22;5338;51.500;6.802;2022-08-18T03:53:31;20.70;99.90
10581;DHT22;5338;51.500;6.802;2022-08-18T03:55:59;20.50;99.90
10581;DHT22;5338;51.500;6.802;2022-08-18T03:58:27;20.40;99.90
10581;DHT22;5338;51.500;6.802;2022-08-18T04:00:54;20.10;99.90
10581;DHT22;5338;51.500;6.802;2022-08-18T04:03:21;20.60;99.90
10581;DHT22;5338;51.500;6.802;2022-08-18T04:05:48;20.30;99.90
10581;DHT22;5338;51.500;6.802;2022-08-18T04:08:15;20.30;99.90
10581;DHT22;5338;51.500;6.802;2022-08-18T04:10:43;20.60;99.90
10581;DHT22;5338;51.500;6.802;2022-08-18T04:13:10;20.50;99.90
10581;DHT22;5338;51.500;6.802;2022-08-18T04:15:38;20.70;99.90
10581;DHT22;5338;51.500;6.802;2022-08-18T04:18:05;20.20;99.90
10581;DHT22;5338;51.500;6.802;2022-08-18T04:20:33;20.50;99.90
10581;DHT22;5338;51.500;6.802;2022-08-18T04:23:00;20.50;99.90
10581;DHT22;5338;51.500;6.802;2022-08-18T04:25:26;20.60;99.90
10581;DHT22;5338;51.500;6.802;2022-08-18T04:27:54;20.60;99.90
10581;DHT22;5338;51.500;6.802;2022-08-18T04:30:24;20.80;99.90
10581;DHT22;5338;51.500;6.802;2022-08-18T04:32:53;20.90;99.90
10581;DHT22;5338;51.500;6.802;2022-08-18T04:35:20;21.00;99.90
10581;DHT22;5338;51.500;6.802;2022-08-18T04:37:48;21.10;99.90
10581;DHT22;5338;51.500;6.802;2022-08-18T04:40:15;20.90;99.90
10581;DHT22;5338;51.500;6.802;2022-08-18T04:42:42;21.00;99.90
10581;DHT22;5338;51.500;6.802;2022-08-18T04:45:10;20.90;99.90
10581;DHT22;5338;51.500;6.802;2022-08-18T04:50:08;20.80;99.90
10581;DHT22;5338;51.500;6.802;2022-08-18T04:52:35;21.10;99.90
10581;DHT22;5338;51.500;6.802;2022-08-18T04:55:34;21.00;99.90
10581;DHT22;5338;51.500;6.802;2022-08-18T04:58:01;21.40;99.90
10581;DHT22;5338;51.500;6.802;2022-08-18T05:00:28;21.10;99.90
10581;DHT22;5338;51.500;6.802;2022-08-18T05:02:55;21.30;99.90
10581;DHT22;5338;51.500;6.802;2022-08-18T05:05:23;21.20;99.90
10581;DHT22;5338;51.500;6.802;2022-08-18T05:07:52;21.40;99.90
10581;DHT22;5338;51.500;6.802;2022-08-18T05:10:19;21.30;99.90
10581;DHT22;5338;51.500;6.802;2022-08-18T05:12:46;21.50;99.90
10581;DHT22;5338;51.500;6.802;2022-08-18T05:15:13;21.50;99.90
10581;DHT22;5338;51.500;6.802;2022-08-18T05:17:42;21.50;99.90
10581;DHT22;5338;51.500;6.802;2022-08-18T05:20:10;21.50;99.90
10581;DHT22;5338;51.500;6.802;2022-08-18T05:22:39;21.50;99.90
10581;DHT22;5338;51.500;6.802;2022-08-18T05:25:07;21.60;99.90
10581;DHT22;5338;51.500;6.802;2022-08-18T05:27:38;22.10;99.90
10581;DHT22;5338;51.500;6.802;2022-08-18T05:30:06;21.80;99.90
10581;DHT22;5338;51.500;6.802;2022-08-18T05:32:33;22.20;99.90
10581;DHT22;5338;51.500;6.802;2022-08-18T05:35:03;22.00;99.90
10581;DHT22;5338;51.500;6.802;2022-08-18T05:37:37;21.80;99.90
10581;DHT22;5338;51.500;6.802;2022-08-18T05:40:09;21.70;99.90
10581;DHT22;5338;51.500;6.802;2022-08-18T05:42:43;21.90;99.90
10581;DHT22;5338;51.500;6.802;2022-08-18T05:45:16;22.30;99.90
10581;DHT22;5338;51.500;6.802;2022-08-18T05:47:43;22.30;99.90
10581;DHT22;5338;51.500;6.802;2022-08-18T05:50:12;22.00;99.90
10581;DHT22;5338;51.500;6.802;2022-08-18T05:52:46;22.40;99.90
10581;DHT22;5338;51.500;6.802;2022-08-18T05:55:22;22.40;99.90
10581;DHT22;5338;51.500;6.802;2022-08-18T05:58:11;22.10;99.90
10581;DHT22;5338;51.500;6.802;2022-08-18T06:00:41;22.10;99.90
10581;DHT22;5338;51.500;6.802;2022-08-18T06:03:14;20.30;99.90
10581;DHT22;5338;51.500;6.802;2022-08-18T06:05:46;21.90;99.90
10581;DHT22;5338;51.500;6.802;2022-08-18T06:08:16;22.50;99.90
10581;DHT22;5338;51.500;6.802;2022-08-18T06:10:48;22.00;99.90
10581;DHT22;5338;51.500;6.802;2022-08-18T06:13:15;22.20;99.90
10581;DHT22;5338;51.500;6.802;2022-08-18T06:15:50;21.90;99.90
10581;DHT22;5338;51.500;6.802;2022-08-18T06:18:37;22.30;99.90
10581;DHT22;5338;51.500;6.802;2022-08-18T06:21:22;21.90;99.90
10581;DHT22;5338;51.500;6.802;2022-08-18T06:24:02;22.10;99.90
10581;DHT22;5338;51.500;6.802;2022-08-18T06:26:39;22.00;99.90
10581;DHT22;5338;51.500;6.802;2022-08-18T06:29:17;21.70;99.90
10581;DHT22;5338;51.500;6.802;2022-08-18T06:31:55;21.40;99.90
10581;DHT22;5338;51.500;6.802;2022-08-18T06:34:33;21.20;99.90
10581;DHT22;5338;51.500;6.802;2022-08-18T06:37:10;21.30;99.90
10581;DHT22;5338;51.500;6.802;2022-08-18T06:39:44;21.30;99.90
10581;DHT22;5338;51.500;6.802;2022-08-18T06:42:16;21.30;99.90
10581;DHT22;5338;51.500;6.802;2022-08-18T06:44:46;20.90;99.90
10581;DHT22;5338;51.500;6.802;2022-08-18T06:47:33;21.50;99.90
10581;DHT22;5338;51.500;6.802;2022-08-18T06:50:06;21.20;99.90
10581;DHT22;5338;51.500;6.802;2022-08-18T06:52:36;21.50;99.90
10581;DHT22;5338;51.500;6.802;2022-08-18T06:55:07;21.20;99.90
10581;DHT22;5338;51.500;6.802;2022-08-18T06:57:37;21.10;99.90
10581;DHT22;5338;51.500;6.802;2022-08-18T07:00:22;21.40;99.90
10581;DHT22;5338;51.500;6.802;2022-08-18T07:02:52;21.20;99.90
10581;DHT22;5338;51.500;6.802;2022-08-18T07:05:23;21.00;99.90
10581;DHT22;5338;51.500;6.802;2022-08-18T07:08:08;21.10;99.90
10581;DHT22;5338;51.500;6.802;2022-08-18T07:10:38;21.50;99.90
10581;DHT22;5338;51.500;6.802;2022-08-18T07:13:22;21.20;99.90
10581;DHT22;5338;51.500;6.802;2022-08-18T07:15:50;20.90;99.90
10581;DHT22;5338;51.500;6.802;2022-08-18T07:18:23;21.40;99.90
10581;DHT22;5338;51.500;6.802;2022-08-18T07:20:52;21.10;99.90
10581;DHT22;5338;51.500;6.802;2022-08-18T07:23:25;21.30;99.90
10581;DHT22;5338;51.500;6.802;2022-08-18T07:26:00;21.50;99.90
10581;DHT22;5338;51.500;6.802;2022-08-18T07:28:33;21.50;99.90
10581;DHT22;5338;51.500;6.802;2022-08-18T07:31:17;21.00;99.90
10581;DHT22;5338;51.500;6.802;2022-08-18T07:33:49;21.10;99.90
10581;DHT22;5338;51.500;6.802;2022-08-18T07:36:19;21.30;99.90
10581;DHT22;5338;51.500;6.802;2022-08-18T07:38:51;21.60;99.90
10581;DHT22;5338;51.500;6.802;2022-08-18T07:41:26;21.60;99.90
10581;DHT22;5338;51.500;6.802;2022-08-18T07:44:04;21.70;99.90
10581;DHT22;5338;51.500;6.802;2022-08-18T07:46:36;21.40;99.90
10581;DHT22;5338;51.500;6.802;2022-08-18T07:49:05;21.50;99.90
10581;DHT22;5338;51.500;6.802;2022-08-18T07:51:41;21.60;99.90
10581;DHT22;5338;51.500;6.802;2022-08-18T07:54:15;21.50;99.90
10581;DHT22;5338;51.500;6.802;2022-08-18T07:56:50;21.70;99.90
10581;DHT22;5338;51.500;6.802;2022-08-18T07:59:26;22.10;99.90
10581;DHT22;5338;51.500;6.802;2022-08-18T08:02:10;21.80;99.90
10581;DHT22;5338;51.500;6.802;2022-08-18T08:04:46;21.90;99.90
10581;DHT22;5338;51.500;6.802;2022-08-18T08:07:20;22.40;99.90
10581;DHT22;5338;51.500;6.802;2022-08-18T08:09:54;22.60;99.90
10581;DHT22;5338;51.500;6.802;2022-08-18T08:12:29;22.20;99.90
10581;DHT22;5338;51.500;6.802;2022-08-18T08:15:11;22.30;99.90
10581;DHT22;5338;51.500;6.802;2022-08-18T08:17:46;22.40;99.90
10581;DHT22;5338;51.500;6.802;2022-08-18T08:20:20;22.70;99.90
10581;DHT22;5338;51.500;6.802;2022-08-18T08:22:59;22.50;99.90
10581;DHT22;5338;51.500;6.802;2022-08-18T08:25:32;22.60;99.90
10581;DHT22;5338;51.500;6.802;2022-08-18T08:28:07;22.60;99.90
10581;DHT22;5338;51.500;6.802;2022-08-18T08:30:44;22.60;99.90
10581;DHT22;5338;51.500;6.802;2022-08-18T08:33:18;22.60;99.90
10581;DHT22;5338;51.500;6.802;2022-08-18T08:35:50;23.00;99.90
10581;DHT22;5338;51.500;6.802;2022-08-18T08:38:22;22.60;99.90
10581;DHT22;5338;51.500;6.802;2022-08-18T08:40:55;22.90;99.90
10581;DHT22;5338;51.500;6.802;2022-08-18T08:43:28;23.00;99.90
10581;DHT22;5338;51.500;6.802;2022-08-18T08:46:05;22.60;99.90
10581;DHT22;5338;51.500;6.802;2022-08-18T08:48:37;22.90;99.90
10581;DHT22;5338;51.500;6.802;2022-08-18T08:51:23;23.00;99.90
10581;DHT22;5338;51.500;6.802;2022-08-18T08:53:54;22.90;99.90
10581;DHT22;5338;51.500;6.802;2022-08-18T08:56:28;23.20;99.90
10581;DHT22;5338;51.500;6.802;2022-08-18T08:58:57;22.90;99.90
10581;DHT22;5338;51.500;6.802;2022-08-18T09:01:32;23.00;99.90
10581;DHT22;5338;51.500;6.802;2022-08-18T09:04:11;23.20;99.90
10581;DHT22;5338;51.500;6.802;2022-08-18T09:06:49;23.30;99.90
10581;DHT22;5338;51.500;6.802;2022-08-18T09:09:40;23.60;99.90
10581;DHT22;5338;51.500;6.802;2022-08-18T09:12:19;23.20;99.90
10581;DHT22;5338;51.500;6.802;2022-08-18T09:15:16;23.00;99.90
10581;DHT22;5338;51.500;6.802;2022-08-18T09:20:55;23.40;99.90
10581;DHT22;5338;51.500;6.802;2022-08-18T09:23:26;23.70;99.90
10581;DHT22;5338;51.500;6.802;2022-08-18T09:25:55;24.10;99.90
10581;DHT22;5338;51.500;6.802;2022-08-18T09:28:51;24.10;99.90
10581;DHT22;5338;51.500;6.802;2022-08-18T09:31:22;24.00;99.90
10581;DHT22;5338;51.500;6.802;2022-08-18T09:34:09;24.00;99.90
10581;DHT22;5338;51.500;6.802;2022-08-18T09:36:52;23.90;99.90
10581;DHT22;5338;51.500;6.802;2022-08-18T09:39:27;24.10;99.90
10581;DHT22;5338;51.500;6.802;2022-08-18T09:42:16;24.60;99.90
10581;DHT22;5338;51.500;6.802;2022-08-18T09:45:01;24.20;99.90
10581;DHT22;5338;51.500;6.802;2022-08-18T09:48:00;24.30;99.90
10581;DHT22;5338;51.500;6.802;2022-08-18T09:50:37;23.90;99.90
10581;DHT22;5338;51.500;6.802;2022-08-18T09:53:36;23.90;99.90
10581;DHT22;5338;51.500;6.802;2022-08-18T09:56:04;24.30;99.90
10581;DHT22;5338;51.500;6.802;2022-08-18T09:59:01;24.50;99.90
10581;DHT22;5338;51.500;6.802;2022-08-18T10:01:48;24.20;99.90
10581;DHT22;5338;51.500;6.802;2022-08-18T10:04:29;24.20;99.90
10581;DHT22;5338;51.500;6.802;2022-08-18T10:07:16;24.20;99.90
10581;DHT22;5338;51.500;6.802;2022-08-18T10:09:52;24.30;99.90
10581;DHT22;5338;51.500;6.802;2022-08-18T10:12:35;24.00;99.90
10581;DHT22;5338;51.500;6.802;2022-08-18T10:15:29;24.30;99.90
10581;DHT22;5338;51.500;6.802;2022-08-18T10:20:55;24.60;99.90
10581;DHT22;5338;51.500;6.802;2022-08-18T10:23:49;24.30;99.90
10581;DHT22;5338;51.500;6.802;2022-08-18T10:29:46;24.50;99.90
10581;DHT22;5338;51.500;6.802;2022-08-18T10:32:23;24.30;99.90
10581;DHT22;5338;51.500;6.802;2022-08-18T10:34:51;24.70;99.90
10581;DHT22;5338;51.500;6.802;2022-08-18T10:37:21;24.70;99.90
10581;DHT22;5338;51.500;6.802;2022-08-18T10:39:55;24.70;99.90
10581;DHT22;5338;51.500;6.802;2022-08-18T10:42:26;24.40;99.90
10581;DHT22;5338;51.500;6.802;2022-08-18T10:45:02;24.60;99.90
10581;DHT22;5338;51.500;6.802;2022-08-18T10:50:00;24.70;99.90
10581;DHT22;5338;51.500;6.802;2022-08-18T10:52:43;24.60;99.90
10581;DHT22;5338;51.500;6.802;2022-08-18T10:55:30;24.80;99.90
10581;DHT22;5338;51.500;6.802;2022-08-18T10:58:33;24.40;99.90
10581;DHT22;5338;51.500;6.802;2022-08-18T11:01:29;24.50;99.90
10581;DHT22;5338;51.500;6.802;2022-08-18T11:04:04;23.90;99.90
10581;DHT22;5338;51.500;6.802;2022-08-18T11:06:39;24.10;99.90
10581;DHT22;5338;51.500;6.802;2022-08-18T11:09:08;23.80;99.90
10581;DHT22;5338;51.500;6.802;2022-08-18T11:11:38;24.10;99.90
10581;DHT22;5338;51.500;6.802;2022-08-18T11:14:21;23.80;99.90
10581;DHT22;5338;51.500;6.802;2022-08-18T11:16:59;24.00;99.90
10581;DHT22;5338;51.500;6.802;2022-08-18T11:19:35;24.20;99.90
10581;DHT22;5338;51.500;6.802;2022-08-18T11:22:02;24.20;99.90
10581;DHT22;5338;51.500;6.802;2022-08-18T11:24:31;23.50;99.90
10581;DHT22;5338;51.500;6.802;2022-08-18T11:27:03;24.50;99.90
10581;DHT22;5338;51.500;6.802;2022-08-18T11:29:32;24.30;99.90
10581;DHT22;5338;51.500;6.802;2022-08-18T11:32:05;24.20;99.90
10581;DHT22;5338;51.500;6.802;2022-08-18T11:34:37;24.50;99.90
10581;DHT22;5338;51.500;6.802;2022-08-18T11:37:07;24.60;99.90
10581;DHT22;5338;51.500;6.802;2022-08-18T11:39:42;24.60;99.90
10581;DHT22;5338;51.500;6.802;2022-08-18T11:42:17;24.70;99.90
10581;DHT22;5338;51.500;6.802;2022-08-18T11:44:45;24.90;99.90
10581;DHT22;5338;51.500;6.802;2022-08-18T11:47:15;25.00;99.90
10581;DHT22;5338;51.500;6.802;2022-08-18T11:49:54;25.30;99.90
10581;DHT22;5338;51.500;6.802;2022-08-18T11:52:25;25.30;99.90
10581;DHT22;5338;51.500;6.802;2022-08-18T11:55:00;25.30;99.90
10581;DHT22;5338;51.500;6.802;2022-08-18T11:57:39;25.20;99.90
10581;DHT22;5338;51.500;6.802;2022-08-18T12:00:34;24.90;99.90
10581;DHT22;5338;51.500;6.802;2022-08-18T12:03:02;24.80;99.90
10581;DHT22;5338;51.500;6.802;2022-08-18T12:05:39;25.30;99.90
10581;DHT22;5338;51.500;6.802;2022-08-18T12:08:16;25.10;99.90
10581;DHT22;5338;51.500;6.802;2022-08-18T12:10:44;25.70;99.90
10581;DHT22;5338;51.500;6.802;2022-08-18T12:13:20;25.40;99.90
10581;DHT22;5338;51.500;6.802;2022-08-18T12:16:07;26.20;99.90
10581;DHT22;5338;51.500;6.802;2022-08-18T12:18:35;26.20;99.90
10581;DHT22;5338;51.500;6.802;2022-08-18T12:21:01;26.10;99.90
10581;DHT22;5338;51.500;6.802;2022-08-18T12:23:28;26.20;99.90
10581;DHT22;5338;51.500;6.802;2022-08-18T12:25:56;26.30;99.90
10581;DHT22;5338;51.500;6.802;2022-08-18T12:28:24;26.50;99.90
10581;DHT22;5338;51.500;6.802;2022-08-18T12:30:52;26.50;99.90
10581;DHT22;5338;51.500;6.802;2022-08-18T12:33:19;26.50;99.90
10581;DHT22;5338;51.500;6.802;2022-08-18T12:35:45;27.00;99.90
10581;DHT22;5338;51.500;6.802;2022-08-18T12:38:12;26.60;99.60
10581;DHT22;5338;51.500;6.802;2022-08-18T12:40:43;27.20;99.60
10581;DHT22;5338;51.500;6.802;2022-08-18T12:43:10;27.60;96.70
10581;DHT22;5338;51.500;6.802;2022-08-18T12:45:38;27.80;95.00
10581;DHT22;5338;51.500;6.802;2022-08-18T12:48:06;27.20;97.40
10581;DHT22;5338;51.500;6.802;2022-08-18T12:50:34;27.40;92.80
10581;DHT22;5338;51.500;6.802;2022-08-18T12:53:01;26.80;93.00
10581;DHT22;5338;51.500;6.802;2022-08-18T12:55:33;26.70;93.90
10581;DHT22;5338;51.500;6.802;2022-08-18T13:00:28;26.30;93.70
10581;DHT22;5338;51.500;6.802;2022-08-18T13:02:56;26.00;99.80
10581;DHT22;5338;51.500;6.802;2022-08-18T13:05:24;26.00;99.10
10581;DHT22;5338;51.500;6.802;2022-08-18T13:07:50;26.10;99.90
10581;DHT22;5338;51.500;6.802;2022-08-18T13:10:17;26.10;99.90
10581;DHT22;5338;51.500;6.802;2022-08-18T13:12:44;26.00;95.10
10581;DHT22;5338;51.500;6.802;2022-08-18T13:15:12;26.10;95.80
10581;DHT22;5338;51.500;6.802;2022-08-18T13:17:39;26.20;96.10
10581;DHT22;5338;51.500;6.802;2022-08-18T13:20:11;26.40;95.00
10581;DHT22;5338;51.500;6.802;2022-08-18T13:22:38;26.60;93.90
10581;DHT22;5338;51.500;6.802;2022-08-18T13:25:08;27.10;94.40
10581;DHT22;5338;51.500;6.802;2022-08-18T13:27:36;27.50;91.90
10581;DHT22;5338;51.500;6.802;2022-08-18T13:30:06;27.80;90.20
10581;DHT22;5338;51.500;6.802;2022-08-18T13:32:34;28.00;88.50
10581;DHT22;5338;51.500;6.802;2022-08-18T13:35:01;29.90;92.70
10581;DHT22;5338;51.500;6.802;2022-08-18T13:37:30;28.50;92.30
10581;DHT22;5338;51.500;6.802;2022-08-18T13:39:57;27.70;91.10
10581;DHT22;5338;51.500;6.802;2022-08-18T13:42:25;28.50;91.50
10581;DHT22;5338;51.500;6.802;2022-08-18T13:44:54;28.60;91.10
10581;DHT22;5338;51.500;6.802;2022-08-18T13:47:21;28.00;90.40
10581;DHT22;5338;51.500;6.802;2022-08-18T13:49:48;28.60;89.20
10581;DHT22;5338;51.500;6.802;2022-08-18T13:52:16;27.80;89.70
10581;DHT22;5338;51.500;6.802;2022-08-18T13:54:44;28.50;89.50
10581;DHT22;5338;51.500;6.802;2022-08-18T13:57:11;28.20;78.70
10581;DHT22;5338;51.500;6.802;2022-08-18T13:59:38;28.20;86.30
10581;DHT22;5338;51.500;6.802;2022-08-18T14:02:09;28.60;86.60
10581;DHT22;5338;51.500;6.802;2022-08-18T14:04:36;28.50;86.80
10581;DHT22;5338;51.500;6.802;2022-08-18T14:07:05;28.50;84.80
10581;DHT22;5338;51.500;6.802;2022-08-18T14:09:34;28.60;73.50
10581;DHT22;5338;51.500;6.802;2022-08-18T14:12:04;28.20;85.20
10581;DHT22;5338;51.500;6.802;2022-08-18T14:14:32;28.90;85.80
10581;DHT22;5338;51.500;6.802;2022-08-18T14:17:00;28.50;86.30
10581;DHT22;5338;51.500;6.802;2022-08-18T14:19:27;27.40;86.90
10581;DHT22;5338;51.500;6.802;2022-08-18T14:22:11;27.80;89.30
10581;DHT22;5338;51.500;6.802;2022-08-18T14:24:55;27.00;87.80
10581;DHT22;5338;51.500;6.802;2022-08-18T14:27:41;27.10;88.60
10581;DHT22;5338;51.500;6.802;2022-08-18T14:30:10;27.00;90.20
10581;DHT22;5338;51.500;6.802;2022-08-18T14:32:38;27.00;83.90
10581;DHT22;5338;51.500;6.802;2022-08-18T14:35:08;27.60;90.50
10581;DHT22;5338;51.500;6.802;2022-08-18T14:37:35;27.00;90.20
10581;DHT22;5338;51.500;6.802;2022-08-18T14:40:03;27.30;90.80
10581;DHT22;5338;51.500;6.802;2022-08-18T14:42:29;27.70;91.70
10581;DHT22;5338;51.500;6.802;2022-08-18T14:44:58;26.70;81.90
10581;DHT22;5338;51.500;6.802;2022-08-18T14:49:52;26.00;92.30
10581;DHT22;5338;51.500;6.802;2022-08-18T14:52:21;25.80;92.90
10581;DHT22;5338;51.500;6.802;2022-08-18T14:54:49;25.70;91.30
10581;DHT22;5338;51.500;6.802;2022-08-18T14:57:16;26.20;93.90
10581;DHT22;5338;51.500;6.802;2022-08-18T14:59:44;26.10;94.40
10581;DHT22;5338;51.500;6.802;2022-08-18T15:02:13;26.20;94.60
10581;DHT22;5338;51.500;6.802;2022-08-18T15:04:40;25.80;94.60
10581;DHT22;5338;51.500;6.802;2022-08-18T15:07:07;25.70;89.20
10581;DHT22;5338;51.500;6.802;2022-08-18T15:09:34;25.90;95.40
10581;DHT22;5338;51.500;6.802;2022-08-18T15:12:01;25.90;95.40
10581;DHT22;5338;51.500;6.802;2022-08-18T15:14:30;25.30;95.10
10581;DHT22;5338;51.500;6.802;2022-08-18T15:16:58;25.90;95.50
10581;DHT22;5338;51.500;6.802;2022-08-18T15:19:26;25.40;96.10
10581;DHT22;5338;51.500;6.802;2022-08-18T15:21:53;25.60;96.50
10581;DHT22;5338;51.500;6.802;2022-08-18T15:24:39;25.60;96.40
10581;DHT22;5338;51.500;6.802;2022-08-18T15:27:30;25.80;96.20
10581;DHT22;5338;51.500;6.802;2022-08-18T15:30:00;25.60;95.60
10581;DHT22;5338;51.500;6.802;2022-08-18T15:32:27;25.90;95.50
10581;DHT22;5338;51.500;6.802;2022-08-18T15:34:55;25.90;90.60
10581;DHT22;5338;51.500;6.802;2022-08-18T15:37:22;26.30;95.90
10581;DHT22;5338;51.500;6.802;2022-08-18T15:42:16;26.60;95.10
10581;DHT22;5338;51.500;6.802;2022-08-18T15:44:42;26.30;94.20
10581;DHT22;5338;51.500;6.802;2022-08-18T15:47:11;26.90;93.90
10581;DHT22;5338;51.500;6.802;2022-08-18T15:49:38;26.40;88.80
10581;DHT22;5338;51.500;6.802;2022-08-18T15:52:11;26.80;93.20
10581;DHT22;5338;51.500;6.802;2022-08-18T15:54:38;26.40;92.80
10581;DHT22;5338;51.500;6.802;2022-08-18T15:57:04;26.70;86.50
10581;DHT22;5338;51.500;6.802;2022-08-18T15:59:38;26.60;92.70
10581;DHT22;5338;51.500;6.802;2022-08-18T16:02:04;26.60;92.50
10581;DHT22;5338;51.500;6.802;2022-08-18T16:04:31;26.80;92.80
10581;DHT22;5338;51.500;6.802;2022-08-18T16:07:03;26.80;91.30
10581;DHT22;5338;51.500;6.802;2022-08-18T16:09:31;27.50;91.90
10581;DHT22;5338;51.500;6.802;2022-08-18T16:11:58;27.30;91.30
10581;DHT22;5338;51.500;6.802;2022-08-18T16:14:25;27.70;91.60
10581;DHT22;5338;51.500;6.802;2022-08-18T16:16:52;27.00;91.30
10581;DHT22;5338;51.500;6.802;2022-08-18T16:19:19;26.90;91.30
10581;DHT22;5338;51.500;6.802;2022-08-18T16:21:46;27.70;91.60
10581;DHT22;5338;51.500;6.802;2022-08-18T16:24:15;27.00;91.00
10581;DHT22;5338;51.500;6.802;2022-08-18T16:26:43;27.60;91.40
10581;DHT22;5338;51.500;6.802;2022-08-18T16:29:10;27.30;84.30
10581;DHT22;5338;51.500;6.802;2022-08-18T16:31:37;27.00;91.50
10581;DHT22;5338;51.500;6.802;2022-08-18T16:34:06;27.60;89.90
10581;DHT22;5338;51.500;6.802;2022-08-18T16:36:33;27.10;91.40
10581;DHT22;5338;51.500;6.802;2022-08-18T16:39:01;27.20;91.10
10581;DHT22;5338;51.500;6.802;2022-08-18T16:41:28;27.10;91.20
10581;DHT22;5338;51.500;6.802;2022-08-18T16:43:57;27.10;81.80